JFK weather

John F Kennedy International Airport
New York, New York, United States

Public forecast

Using degrees Fahrenheit for public forecast. Weather courtesy of forecast.io.

Current aviation weather report (METAR) for John F Kennedy International Airport

Retrieved 2019/10/23 01:51 UTC (14 minutes ago):

KJFK 230151Z 11012G21KT 1 1/2SM -RA BR OVC003 16/16 A2984 RMK AO2 SFC VIS 5 SLP105 P0004 T01610161

Aviation forecast (TAF) for John F Kennedy International Airport

Retrieved 2019-10-23 00:34 UTC (2 hours ago):

TAF KJFK 222332Z 2300/2406 12013KT 3SM -RA BR OVC004 TEMPO 2303/2307 15009KT 1SM BR OVC003 FM230700 23008KT 4SM -RA BR OVC006 FM230900 30010KT 5SM BR BKN025 OVC035 FM231200 29012G17KT P6SM SCT025 SCT250 FM231500 28015G23KT P6SM FEW250 FM232200 27012KT P6SM FEW250